Time;durP1;ratioP1;P1;durP2;ratioP2;P2;SDS_P1;SDS_P2;PMS_P1;PMS_P2;Temp;Humidity;BMP_temperature;BMP_pressure;BME280_temperature;BME280_humidity;BME280_pressure;Samples;Min_cycle;Max_cycle;Signal;HPM_P1;HPM_P2
2022/05/26 00:02:06;;;;;;;1.33;1.00;;;21.90;47.30;;;;;;5126485;28;20434;-86
2022/05/26 00:04:34;;;;;;;1.57;0.90;;;21.80;47.30;;;;;;5128276;28;20507;-86
2022/05/26 00:07:02;;;;;;;0.90;0.90;;;21.80;47.30;;;;;;5127455;28;20450;-86
2022/05/26 00:09:30;;;;;;;1.03;0.83;;;21.90;47.30;;;;;;5127236;28;20448;-86
2022/05/26 00:11:58;;;;;;;2.20;0.80;;;21.80;47.30;;;;;;5120974;28;20473;-87
2022/05/26 00:14:26;;;;;;;9.20;5.03;;;21.80;47.30;;;;;;5117545;28;20455;-83
2022/05/26 00:16:56;;;;;;;17.30;5.80;;;19.60;57.70;;;;;;5110573;27;20533;-81
2022/05/26 00:19:24;;;;;;;11.70;4.90;;;18.20;63.60;;;;;;5114200;28;20506;-86
2022/05/26 00:21:52;;;;;;;6.47;3.80;;;17.90;66.60;;;;;;5118348;28;20562;-85
2022/05/26 00:24:20;;;;;;;5.53;3.27;;;18.90;63.20;;;;;;5118230;28;20475;-85
2022/05/26 00:26:48;;;;;;;8.90;2.90;;;19.80;59.90;;;;;;5119584;28;20478;-86
2022/05/26 00:29:16;;;;;;;5.33;2.73;;;20.30;58.20;;;;;;5119725;28;20506;-86
2022/05/26 00:32:12;;;;;;;2.73;2.47;;;20.70;56.70;;;;;;5105959;28;20500;-85
2022/05/26 00:35:19;;;;;;;5.37;2.47;;;20.90;55.50;;;;;;5100186;27;20459;-85
2022/05/26 00:38:12;;;;;;;7.13;2.20;;;21.10;54.60;;;;;;5093474;28;20468;-86
2022/05/26 00:41:20;;;;;;;7.00;2.20;;;21.20;53.70;;;;;;5058466;28;20465;-85
2022/05/26 00:47:59;;;;;;;2.70;1.63;;;21.40;52.70;;;;;;5097746;28;20933;-86
2022/05/26 00:51:16;;;;;;;2.17;1.90;;;21.40;52.30;;;;;;5101713;28;20461;-87
2022/05/26 00:54:03;;;;;;;2.93;1.83;;;21.50;52.10;;;;;;5100776;28;20452;-86
2022/05/26 00:56:39;;;;;;;6.20;1.97;;;21.50;51.70;;;;;;5113865;28;20411;-85
2022/05/26 01:02:17;;;;;;;3.30;1.60;;;21.50;51.20;;;;;;5113527;28;20509;-85
2022/05/26 01:05:07;;;;;;;2.13;1.50;;;21.50;51.10;;;;;;5113345;28;20447;-86
2022/05/26 01:08:16;;;;;;;8.20;1.60;;;21.50;50.90;;;;;;5112675;28;20419;-86
2022/05/26 01:14:18;;;;;;;2.17;1.70;;;21.50;50.60;;;;;;5112352;28;20442;-86
2022/05/26 01:21:01;;;;;;;5.37;1.73;;;21.50;50.40;;;;;;5111125;28;20461;-86
2022/05/26 01:30:40;;;;;;;2.20;1.90;;;21.50;50.00;;;;;;4992858;28;20472;-86
2022/05/26 01:36:50;;;;;;;6.50;1.90;;;21.40;49.90;;;;;;5011956;28;20509;-85
2022/05/26 01:39:26;;;;;;;2.40;1.63;;;21.50;49.90;;;;;;5119962;28;20542;-85
2022/05/26 01:42:28;;;;;;;1.97;1.30;;;21.50;49.70;;;;;;5118981;28;20504;-84
2022/05/26 01:45:12;;;;;;;1.57;1.47;;;21.40;49.60;;;;;;5114665;28;20475;-85
2022/05/26 01:48:00;;;;;;;1.67;1.50;;;21.40;49.50;;;;;;5109115;28;20417;-85
2022/05/26 01:50:52;;;;;;;2.57;1.70;;;21.40;49.50;;;;;;5114042;28;20482;-83
2022/05/26 01:53:43;;;;;;;2.57;1.60;;;21.40;49.50;;;;;;5113097;28;20440;-84
2022/05/26 01:56:27;;;;;;;3.10;1.70;;;21.40;49.40;;;;;;5112968;28;20435;-84
2022/05/26 01:59:13;;;;;;;3.33;1.70;;;21.40;49.40;;;;;;5114614;28;20414;-83
2022/05/26 02:01:58;;;;;;;5.57;1.63;;;21.40;49.40;;;;;;5110822;28;20443;-83
2022/05/26 02:04:48;;;;;;;1.70;1.60;;;21.40;49.20;;;;;;5105082;28;20414;-84
2022/05/26 02:07:43;;;;;;;1.53;1.30;;;21.40;49.30;;;;;;5115455;28;20471;-84
2022/05/26 02:10:36;;;;;;;3.33;1.50;;;21.40;49.30;;;;;;5113538;28;20467;-84
2022/05/26 02:13:11;;;;;;;5.73;1.70;;;21.40;49.10;;;;;;5113377;28;20424;-84
2022/05/26 02:15:41;;;;;;;1.73;1.63;;;21.40;48.90;;;;;;5113276;28;20440;-84
2022/05/26 02:18:14;;;;;;;1.60;1.50;;;21.40;48.90;;;;;;5112504;28;20443;-84
2022/05/26 02:20:48;;;;;;;1.73;1.63;;;21.50;48.70;;;;;;5108370;28;20912;-83
2022/05/26 02:23:22;;;;;;;1.93;1.50;;;21.40;48.70;;;;;;5117101;28;20418;-84
2022/05/26 02:25:51;;;;;;;1.53;1.43;;;21.40;48.70;;;;;;5113963;28;20453;-83
2022/05/26 02:28:20;;;;;;;2.47;1.77;;;21.40;48.80;;;;;;5115290;28;20418;-84
2022/05/26 02:30:49;;;;;;;2.10;1.50;;;21.40;48.70;;;;;;5115260;28;20442;-83
2022/05/26 02:33:30;;;;;;;1.50;1.40;;;21.40;48.70;;;;;;5113839;28;20418;-84
2022/05/26 02:36:12;;;;;;;1.90;1.77;;;21.40;48.70;;;;;;5101160;28;20472;-84
2022/05/26 02:39:16;;;;;;;4.27;2.10;;;21.30;48.50;;;;;;5111231;28;20515;-84
2022/05/26 02:42:00;;;;;;;1.60;1.40;;;21.40;48.60;;;;;;5110406;28;20457;-84
2022/05/26 02:44:39;;;;;;;1.87;1.67;;;21.40;48.60;;;;;;5114589;28;20439;-84
2022/05/26 02:47:18;;;;;;;1.50;1.40;;;21.40;48.60;;;;;;5117365;28;20445;-83
2022/05/26 02:50:09;;;;;;;1.60;1.50;;;21.30;48.60;;;;;;5118681;28;20432;-83
2022/05/26 02:52:41;;;;;;;2.27;1.60;;;21.30;48.60;;;;;;5115015;28;20482;-84
2022/05/26 02:55:16;;;;;;;1.77;1.67;;;21.30;48.50;;;;;;5111271;28;20410;-84
2022/05/26 02:57:55;;;;;;;1.67;1.57;;;21.30;48.60;;;;;;5119260;28;20497;-84
2022/05/26 03:00:29;;;;;;;1.70;1.60;;;21.20;48.50;;;;;;5118230;28;20471;-83
2022/05/26 03:03:17;;;;;;;1.63;1.53;;;21.30;48.40;;;;;;5118432;28;20442;-83
2022/05/26 03:05:55;;;;;;;3.10;1.73;;;21.30;48.30;;;;;;5116015;28;20446;-84
2022/05/26 03:08:42;;;;;;;1.63;1.53;;;21.20;48.40;;;;;;5118108;28;20448;-84
2022/05/26 03:11:28;;;;;;;2.30;1.40;;;21.20;48.40;;;;;;5102765;28;20479;-84
2022/05/26 03:14:13;;;;;;;3.07;1.37;;;21.20;48.50;;;;;;5116801;28;20467;-84
2022/05/26 03:16:56;;;;;;;1.43;1.33;;;21.20;48.50;;;;;;5116852;28;20516;-84
2022/05/26 03:19:44;;;;;;;1.40;1.30;;;21.20;48.40;;;;;;5117040;28;20474;-84
2022/05/26 03:22:31;;;;;;;1.93;1.60;;;21.20;48.60;;;;;;5114110;28;20438;-84
2022/05/26 03:25:24;;;;;;;2.90;1.80;;;21.20;48.40;;;;;;5114945;27;20809;-83
2022/05/26 03:28:19;;;;;;;1.70;1.60;;;21.20;48.60;;;;;;5100649;28;20446;-83
2022/05/26 03:30:53;;;;;;;1.90;1.70;;;21.20;48.60;;;;;;5117156;28;20456;-83
2022/05/26 03:42:21;;;;;;;1.60;1.40;;;21.10;48.50;;;;;;5111845;28;20455;-83
2022/05/26 03:45:02;;;;;;;1.73;1.50;;;21.10;48.50;;;;;;5108368;28;20444;-83
2022/05/26 03:48:01;;;;;;;3.47;1.90;;;21.00;48.50;;;;;;5100206;28;20448;-83
2022/05/26 03:50:40;;;;;;;3.00;1.77;;;21.10;48.70;;;;;;5097086;28;20439;-83
2022/05/26 03:53:30;;;;;;;1.53;1.43;;;21.10;48.40;;;;;;5098674;28;20444;-83
2022/05/26 03:56:10;;;;;;;1.70;1.60;;;21.00;48.40;;;;;;5077564;28;20469;-83
2022/05/26 03:58:46;;;;;;;1.60;1.50;;;21.00;48.50;;;;;;5075078;28;20477;-83
2022/05/26 04:01:56;;;;;;;1.97;1.43;;;21.00;48.50;;;;;;5087508;28;20511;-83
2022/05/26 04:04:56;;;;;;;2.20;1.73;;;21.10;48.70;;;;;;5075324;28;20446;-83
2022/05/26 04:07:47;;;;;;;4.03;1.70;;;21.00;48.40;;;;;;5076926;28;20416;-83
2022/05/26 04:10:42;;;;;;;2.93;1.40;;;21.10;48.50;;;;;;5075827;28;20451;-83
2022/05/26 04:13:48;;;;;;;2.10;1.60;;;21.00;48.40;;;;;;5033247;28;20454;-83
2022/05/26 04:16:35;;;;;;;2.07;1.87;;;21.00;48.50;;;;;;5033764;28;20440;-83
2022/05/26 04:19:31;;;;;;;3.10;2.03;;;21.00;48.30;;;;;;5085969;28;20411;-83
2022/05/26 04:22:32;;;;;;;2.50;1.80;;;21.10;48.40;;;;;;5074648;28;20473;-83
2022/05/26 04:25:25;;;;;;;4.83;2.27;;;21.10;48.40;;;;;;5067127;28;20438;-83
2022/05/26 04:28:12;;;;;;;2.17;1.60;;;21.00;48.20;;;;;;5076362;28;20452;-83
2022/05/26 04:30:47;;;;;;;1.70;1.60;;;21.00;48.20;;;;;;5077971;28;20461;-83
2022/05/26 04:33:28;;;;;;;1.97;1.87;;;21.00;48.20;;;;;;5080293;28;20440;-83
2022/05/26 04:36:16;;;;;;;1.70;1.60;;;21.10;48.30;;;;;;5084889;28;20436;-83
2022/05/26 04:39:06;;;;;;;2.57;1.90;;;21.10;48.30;;;;;;5094670;28;20470;-83
2022/05/26 04:41:50;;;;;;;4.37;2.10;;;21.10;48.30;;;;;;5092830;28;20447;-83
2022/05/26 04:44:19;;;;;;;2.23;1.90;;;21.10;48.00;;;;;;5095984;28;20448;-83
2022/05/26 04:46:48;;;;;;;2.03;1.83;;;21.20;48.00;;;;;;5096247;28;20480;-83
2022/05/26 04:49:28;;;;;;;3.00;1.80;;;21.10;48.10;;;;;;5096556;28;20427;-83
2022/05/26 04:52:02;;;;;;;1.90;1.80;;;21.10;48.10;;;;;;5090064;28;20496;-83
2022/05/26 04:57:52;;;;;;;2.10;1.90;;;21.20;48.00;;;;;;5095709;28;20502;-83
2022/05/26 05:00:32;;;;;;;3.83;1.83;;;21.30;47.80;;;;;;5093885;28;20457;-83
2022/05/26 05:03:10;;;;;;;6.70;2.10;;;21.30;47.70;;;;;;5094729;28;20447;-83
2022/05/26 05:06:17;;;;;;;4.67;2.60;;;21.30;47.80;;;;;;5094845;28;20444;-83
2022/05/26 05:09:08;;;;;;;;;;;;;;;;;;;;;
2022/05/26 05:11:47;;;;;;;2.17;1.97;;;21.40;47.80;;;;;;5091709;28;20468;-83
2022/05/26 05:14:21;;;;;;;2.80;2.20;;;21.40;47.60;;;;;;5094138;28;20440;-83
2022/05/26 05:16:56;;;;;;;2.53;2.30;;;21.50;47.60;;;;;;5093505;28;20463;-83
2022/05/26 05:19:40;;;;;;;3.23;1.90;;;21.50;47.60;;;;;;5093657;28;20462;-84
2022/05/26 05:22:21;;;;;;;4.47;1.97;;;21.50;47.50;;;;;;5093703;28;20447;-83
2022/05/26 05:27:49;;;;;;;2.83;1.87;;;21.60;47.30;;;;;;5089987;28;20443;-83
2022/05/26 05:30:32;;;;;;;3.63;2.00;;;21.50;47.30;;;;;;5094633;28;20538;-83
2022/05/26 05:33:06;;;;;;;5.30;2.40;;;21.70;47.30;;;;;;5094066;28;20437;-83
2022/05/26 05:35:48;;;;;;;5.23;2.30;;;21.60;47.40;;;;;;5094141;28;20440;-83
2022/05/26 05:41:28;;;;;;;4.47;2.50;;;21.70;47.20;;;;;;5089227;28;20522;-83
2022/05/26 05:44:11;;;;;;;5.40;2.40;;;21.70;47.30;;;;;;5073308;28;20442;-83
2022/05/26 05:49:37;;;;;;;3.50;2.13;;;21.80;47.30;;;;;;5073710;28;20424;-83
2022/05/26 05:52:10;;;;;;;5.53;2.50;;;21.80;47.30;;;;;;5072687;28;20436;-83
2022/05/26 05:54:45;;;;;;;5.77;2.40;;;22.10;46.80;;;;;;5072928;28;20425;-83
2022/05/26 05:57:29;;;;;;;6.73;2.50;;;22.10;46.60;;;;;;5077633;28;20441;-83
2022/05/26 06:03:10;;;;;;;3.13;2.30;;;22.10;46.70;;;;;;5072523;28;21006;-83
2022/05/26 06:05:42;;;;;;;4.83;1.87;;;22.00;46.80;;;;;;5073135;28;20517;-83
2022/05/26 06:08:13;;;;;;;4.20;1.93;;;22.00;46.90;;;;;;5073228;28;20438;-83
2022/05/26 06:10:44;;;;;;;6.60;2.10;;;22.10;46.80;;;;;;5072765;28;20504;-83
2022/05/26 06:13:19;;;;;;;4.17;2.20;;;22.10;46.80;;;;;;5073327;28;20467;-83
2022/05/26 06:16:03;;;;;;;3.60;2.27;;;22.00;46.90;;;;;;5080222;28;20454;-83
2022/05/26 08:28:11;;;;;;;1.87;1.30;;;25.50;43.40;;;;;;5122744;27;20533;-83
2022/05/26 08:30:53;;;;;;;2.67;1.10;;;24.90;44.60;;;;;;5114825;28;20451;-85
2022/05/26 08:33:23;;;;;;;1.90;1.30;;;25.30;44.00;;;;;;5102864;28;20426;-86
2022/05/26 08:35:59;;;;;;;3.70;1.00;;;25.70;43.10;;;;;;5102569;28;20514;-86
2022/05/26 08:38:35;;;;;;;5.17;1.10;;;25.50;43.40;;;;;;5102670;28;20422;-86
2022/05/26 08:41:16;;;;;;;2.83;1.30;;;25.60;43.40;;;;;;5095496;28;20527;-85
2022/05/26 08:43:54;;;;;;;4.63;1.20;;;25.70;43.20;;;;;;5098770;28;20416;-86
2022/05/26 08:46:43;;;;;;;1.10;1.00;;;26.00;43.00;;;;;;5099565;28;20857;-85
2022/05/26 08:49:23;;;;;;;1.30;1.00;;;26.20;42.60;;;;;;5102346;28;20494;-86
2022/05/26 08:52:12;;;;;;;1.73;1.17;;;26.20;42.40;;;;;;5100407;28;20492;-86
2022/05/26 08:54:54;;;;;;;3.10;1.00;;;26.40;42.40;;;;;;5095143;28;20400;-85
2022/05/26 08:57:35;;;;;;;3.33;1.10;;;26.60;42.00;;;;;;5094011;28;20468;-86
2022/05/26 09:00:13;;;;;;;1.83;1.20;;;26.70;42.00;;;;;;5073937;28;20447;-86
2022/05/26 09:02:53;;;;;;;4.20;1.07;;;26.80;41.50;;;;;;5074870;28;20459;-85
2022/05/26 09:05:36;;;;;;;2.67;1.10;;;26.90;41.40;;;;;;5072329;28;20409;-85
2022/05/26 09:14:08;;;;;;;1.10;0.90;;;26.50;41.70;;;;;;5079042;28;20536;-85
2022/05/26 09:16:49;;;;;;;3.27;0.90;;;26.30;41.80;;;;;;5074893;28;20528;-85
2022/05/26 09:19:23;;;;;;;1.83;0.70;;;26.20;42.10;;;;;;5076266;28;20478;-85
2022/05/26 09:21:57;;;;;;;1.10;0.90;;;26.30;42.10;;;;;;5075863;28;20485;-85
2022/05/26 09:24:31;;;;;;;1.33;0.90;;;26.30;42.30;;;;;;5075738;28;20404;-85
2022/05/26 09:27:01;;;;;;;1.27;0.93;;;26.40;42.20;;;;;;5073757;28;20497;-85
2022/05/26 09:29:38;;;;;;;3.73;1.20;;;26.60;42.20;;;;;;5073578;28;20502;-87
2022/05/26 09:32:22;;;;;;;0.90;0.90;;;26.80;42.20;;;;;;5082205;28;20443;-86
2022/05/26 09:35:07;;;;;;;2.77;0.90;;;27.00;42.30;;;;;;5081715;28;20445;-88
2022/05/26 09:37:49;;;;;;;2.30;1.00;;;27.10;42.40;;;;;;5082385;28;20503;-85
2022/05/26 09:40:21;;;;;;;0.97;0.87;;;27.30;42.20;;;;;;5079861;28;20502;-86
2022/05/26 09:43:08;;;;;;;2.03;1.27;;;27.50;42.00;;;;;;5081685;28;20467;-85
2022/05/26 09:45:53;;;;;;;1.30;1.20;;;27.70;41.70;;;;;;5081461;28;20442;-86
2022/05/26 09:48:29;;;;;;;3.40;0.90;;;28.00;41.10;;;;;;5075941;28;20445;-87
2022/05/26 09:51:07;;;;;;;3.23;1.50;;;28.30;40.90;;;;;;5075855;28;20465;-86
2022/05/26 09:53:40;;;;;;;2.13;0.90;;;28.40;40.80;;;;;;5079116;28;20503;-87
2022/05/26 09:56:08;;;;;;;0.93;0.93;;;28.30;40.90;;;;;;5076468;28;20556;-88
2022/05/26 09:58:39;;;;;;;2.40;0.90;;;28.40;41.00;;;;;;5076329;28;20445;-86
2022/05/26 10:01:33;;;;;;;1.57;0.90;;;28.60;40.70;;;;;;5077147;28;20466;-87
2022/05/26 10:04:10;;;;;;;3.57;1.40;;;28.70;40.50;;;;;;5079872;28;20533;-85
2022/05/26 10:06:40;;;;;;;1.90;0.90;;;28.60;40.80;;;;;;5085839;28;20442;-85
2022/05/26 10:09:18;;;;;;;1.53;1.10;;;28.80;40.80;;;;;;5082827;28;20508;-86
2022/05/26 10:12:02;;;;;;;3.50;0.80;;;29.00;40.40;;;;;;5079514;28;20500;-85
2022/05/26 10:14:51;;;;;;;0.97;0.87;;;29.10;40.00;;;;;;5078549;28;20460;-86
2022/05/26 10:17:30;;;;;;;1.27;0.90;;;29.00;39.90;;;;;;5079930;28;20494;-86
2022/05/26 10:20:27;;;;;;;0.80;0.80;;;29.10;39.80;;;;;;5070311;28;20446;-86
2022/05/26 10:23:15;;;;;;;1.10;1.00;;;29.00;39.60;;;;;;5074749;28;20448;-86
2022/05/26 10:25:52;;;;;;;0.90;0.90;;;28.90;39.90;;;;;;5080806;28;20495;-86
2022/05/26 10:28:45;;;;;;;1.30;0.80;;;29.00;39.80;;;;;;5080379;28;20441;-85
2022/05/26 10:31:27;;;;;;;2.10;0.90;;;29.00;39.80;;;;;;5082856;28;20500;-85
2022/05/26 10:34:12;;;;;;;5.80;1.00;;;29.10;39.30;;;;;;5081231;28;20450;-86
2022/05/26 10:37:12;;;;;;;3.87;1.17;;;29.00;39.30;;;;;;5082322;28;20473;-85
2022/05/26 10:40:09;;;;;;;2.03;1.07;;;29.00;39.30;;;;;;5079989;28;20433;-85
2022/05/26 10:42:48;;;;;;;2.13;0.80;;;29.20;38.80;;;;;;5078758;28;20445;-86
2022/05/26 10:45:26;;;;;;;1.27;1.03;;;29.20;38.40;;;;;;5070659;28;20443;-86
2022/05/26 10:48:05;;;;;;;1.80;1.03;;;29.10;38.50;;;;;;5057315;28;20506;-84
2022/05/26 10:50:37;;;;;;;4.53;1.30;;;29.00;38.60;;;;;;5078821;28;20540;-84
2022/05/26 10:53:11;;;;;;;9.80;1.93;;;28.10;37.50;;;;;;5081827;28;20445;-84
2022/05/26 10:55:44;;;;;;;1.63;1.53;;;27.70;37.60;;;;;;5084171;28;20442;-83
2022/05/26 10:58:16;;;;;;;7.03;1.27;;;27.60;37.40;;;;;;5079916;28;20476;-78
2022/05/26 11:00:44;;;;;;;5.27;1.47;;;27.40;38.20;;;;;;5076754;28;20496;-80
2022/05/26 11:03:14;;;;;;;1.03;0.90;;;27.30;37.90;;;;;;5075925;28;20503;-80
2022/05/26 11:05:45;;;;;;;4.60;1.23;;;27.20;37.20;;;;;;5077923;28;20408;-81
2022/05/26 11:08:22;;;;;;;3.63;1.03;;;27.00;37.20;;;;;;5078645;28;20505;-79
2022/05/26 11:10:52;;;;;;;2.30;1.00;;;27.00;37.30;;;;;;5076893;28;20462;-80
2022/05/26 11:13:27;;;;;;;2.47;1.10;;;27.00;37.20;;;;;;5077685;28;20437;-80
2022/05/26 11:18:48;;;;;;;3.23;0.83;;;26.80;37.30;;;;;;5074894;28;20468;-81
2022/05/26 11:21:18;;;;;;;5.10;0.87;;;26.60;37.40;;;;;;5075464;28;20476;-80
2022/05/26 11:23:47;;;;;;;1.77;1.00;;;26.50;37.50;;;;;;5076006;28;20959;-80
2022/05/26 11:26:21;;;;;;;4.53;1.23;;;26.40;37.70;;;;;;5075289;28;20458;-80
2022/05/26 11:28:50;;;;;;;6.63;1.00;;;26.40;37.80;;;;;;5076450;28;20448;-81
2022/05/26 11:37:00;;;;;;;1.20;1.10;;;26.40;37.80;;;;;;5073264;28;20508;-78
2022/05/26 11:39:33;;;;;;;3.80;1.10;;;26.30;38.00;;;;;;5073363;28;20451;-79
2022/05/26 11:42:02;;;;;;;2.27;0.90;;;26.30;38.10;;;;;;5075170;28;20468;-78
2022/05/26 11:44:37;;;;;;;1.80;0.80;;;27.50;37.50;;;;;;5074712;28;20521;-79
2022/05/26 11:47:31;;;;;;;5.03;0.80;;;27.80;35.70;;;;;;5074970;28;20422;-78
2022/05/26 11:50:31;;;;;;;1.63;0.90;;;28.20;36.20;;;;;;5057477;28;20768;-79
2022/05/26 11:53:07;;;;;;;2.57;1.07;;;29.10;34.80;;;;;;5054808;28;20542;-78
2022/05/26 11:55:48;;;;;;;1.57;0.90;;;28.90;34.90;;;;;;5053470;28;20532;-78
2022/05/26 11:58:32;;;;;;;0.70;0.70;;;29.70;33.80;;;;;;5053568;28;20465;-76
2022/05/26 12:01:33;;;;;;;3.63;0.70;;;29.70;33.00;;;;;;5070259;28;20515;-78
2022/05/26 12:04:05;;;;;;;1.53;0.80;;;29.30;33.80;;;;;;5072162;28;20450;-78
2022/05/26 12:06:41;;;;;;;1.50;1.10;;;28.40;34.80;;;;;;5072658;28;20469;-78
2022/05/26 12:09:11;;;;;;;1.20;0.77;;;27.80;36.10;;;;;;5057635;28;20450;-77
2022/05/26 12:12:08;;;;;;;1.33;1.00;;;27.60;36.90;;;;;;5052384;28;20467;-77
2022/05/26 12:14:42;;;;;;;3.63;1.30;;;27.70;36.80;;;;;;5018455;28;20417;-79
2022/05/26 12:17:31;;;;;;;3.40;1.00;;;28.50;35.80;;;;;;5053432;28;20445;-79
2022/05/26 12:19:59;;;;;;;2.87;1.00;;;28.40;35.60;;;;;;5064926;28;20446;-77
2022/05/26 12:22:29;;;;;;;1.97;0.90;;;28.10;36.60;;;;;;5073828;28;20449;-80
2022/05/26 12:25:17;;;;;;;1.27;0.90;;;27.60;36.80;;;;;;5073922;28;20473;-79
2022/05/26 12:28:06;;;;;;;1.03;0.73;;;27.40;37.50;;;;;;5073833;28;20448;-79
2022/05/26 12:31:14;;;;;;;1.73;1.00;;;27.30;37.50;;;;;;5074014;28;20976;-79
2022/05/26 12:34:02;;;;;;;1.53;0.80;;;28.00;37.00;;;;;;5075862;28;20449;-82
2022/05/26 12:36:52;;;;;;;0.70;0.70;;;28.00;36.30;;;;;;5075010;28;20422;-78
2022/05/26 12:39:49;;;;;;;1.10;1.00;;;27.60;37.00;;;;;;5074227;28;20460;-77
2022/05/26 12:42:25;;;;;;;3.97;1.03;;;27.30;37.60;;;;;;5017849;28;20451;-78
2022/05/26 12:45:13;;;;;;;3.90;0.90;;;27.00;38.20;;;;;;5071892;28;20459;-75
2022/05/26 12:47:59;;;;;;;2.03;1.07;;;26.90;38.40;;;;;;5072019;28;20460;-77
2022/05/26 12:50:27;;;;;;;3.43;1.07;;;26.90;38.80;;;;;;5072812;28;20470;-79
2022/05/26 12:53:03;;;;;;;3.23;1.00;;;26.80;38.80;;;;;;5066109;28;20447;-79
2022/05/26 12:55:32;;;;;;;2.53;0.80;;;26.80;38.90;;;;;;5056778;28;20434;-80
2022/05/26 12:58:02;;;;;;;2.20;1.10;;;26.80;38.70;;;;;;5058919;28;20554;-79
2022/05/26 13:00:34;;;;;;;1.97;1.10;;;26.70;38.80;;;;;;5074400;28;20564;-80
2022/05/26 13:03:04;;;;;;;7.33;0.80;;;26.60;39.00;;;;;;5081547;28;20517;-82
2022/05/26 13:05:34;;;;;;;1.30;1.10;;;26.50;39.50;;;;;;5067734;28;20447;-83
2022/05/26 13:08:02;;;;;;;3.27;1.00;;;26.60;39.60;;;;;;5085399;28;20528;-81
2022/05/26 13:10:33;;;;;;;2.43;0.90;;;26.70;39.90;;;;;;5086959;28;20484;-83
2022/05/26 13:13:01;;;;;;;3.37;1.00;;;26.90;39.90;;;;;;5086382;28;20499;-84
2022/05/26 13:15:29;;;;;;;3.83;1.00;;;27.00;39.70;;;;;;5084858;28;20461;-82
2022/05/26 13:17:59;;;;;;;1.93;0.93;;;27.10;39.80;;;;;;5081818;28;20497;-83
2022/05/26 13:20:31;;;;;;;2.30;0.90;;;27.20;39.90;;;;;;5081674;28;20484;-82
2022/05/26 13:23:29;;;;;;;1.63;0.80;;;27.20;39.80;;;;;;5061160;28;20442;-83
2022/05/26 13:25:57;;;;;;;1.90;0.80;;;27.30;39.90;;;;;;5070787;28;20458;-83
2022/05/26 13:28:27;;;;;;;1.87;1.17;;;27.30;39.80;;;;;;5084759;28;20452;-83
2022/05/26 13:34:02;;;;;;;1.33;1.03;;;27.30;39.90;;;;;;5085007;28;20956;-83
2022/05/26 13:36:32;;;;;;;3.97;1.07;;;27.40;39.80;;;;;;5083630;28;20451;-83
2022/05/26 13:39:05;;;;;;;4.67;1.10;;;27.40;39.90;;;;;;5082275;28;20469;-83
2022/05/26 13:41:40;;;;;;;6.40;1.20;;;27.50;39.80;;;;;;5083058;28;20548;-83
2022/05/26 13:44:09;;;;;;;5.40;0.80;;;27.30;40.00;;;;;;5083326;28;20487;-83
2022/05/26 13:46:39;;;;;;;1.57;1.00;;;27.40;39.90;;;;;;5081390;28;20446;-83
2022/05/26 13:49:32;;;;;;;2.80;0.70;;;27.40;39.80;;;;;;5083970;28;20471;-83
2022/05/26 13:52:00;;;;;;;2.60;0.97;;;27.40;40.00;;;;;;5083947;28;20492;-84
2022/05/26 13:54:35;;;;;;;0.90;0.90;;;27.30;39.90;;;;;;5082667;28;20445;-83
2022/05/26 13:57:06;;;;;;;2.20;0.90;;;27.40;39.90;;;;;;5083190;28;20463;-83
2022/05/26 13:59:37;;;;;;;2.50;0.80;;;27.30;40.00;;;;;;5082389;28;20461;-82
2022/05/26 14:02:07;;;;;;;1.27;1.00;;;27.30;40.00;;;;;;5082375;28;20492;-82
2022/05/26 14:04:39;;;;;;;2.13;1.40;;;27.30;40.10;;;;;;5082249;28;20499;-83
2022/05/26 14:07:29;;;;;;;0.87;0.80;;;27.20;40.10;;;;;;5070108;28;20440;-83
2022/05/26 14:10:09;;;;;;;2.50;1.00;;;27.20;40.40;;;;;;5082340;28;20418;-82
2022/05/26 14:12:37;;;;;;;1.27;1.17;;;27.10;40.50;;;;;;5081085;28;20445;-82
2022/05/26 14:15:05;;;;;;;2.07;0.90;;;27.00;40.50;;;;;;5081949;28;20480;-82
2022/05/26 14:17:35;;;;;;;2.73;0.97;;;27.00;40.70;;;;;;5080891;28;20547;-80
2022/05/26 14:20:20;;;;;;;1.57;0.90;;;27.00;40.60;;;;;;5072862;28;20461;-83
2022/05/26 14:22:48;;;;;;;2.97;1.07;;;27.10;40.60;;;;;;5073044;28;20499;-82
2022/05/26 14:25:16;;;;;;;1.93;1.10;;;27.10;40.60;;;;;;5081895;28;20476;-82
2022/05/26 14:27:52;;;;;;;1.57;1.00;;;27.00;40.60;;;;;;5080667;28;20455;-83
2022/05/26 14:30:32;;;;;;;0.90;0.90;;;27.00;41.30;;;;;;5082118;28;20457;-82
2022/05/26 14:33:09;;;;;;;2.90;1.03;;;27.00;40.80;;;;;;5081149;28;20475;-82
2022/05/26 14:35:38;;;;;;;1.30;0.80;;;27.00;40.90;;;;;;5077691;28;20441;-82
2022/05/26 14:38:07;;;;;;;1.37;0.73;;;26.90;40.90;;;;;;5080075;28;20519;-83
2022/05/26 14:40:35;;;;;;;0.80;0.80;;;26.90;40.80;;;;;;5080705;28;20524;-82
2022/05/26 14:43:07;;;;;;;0.93;0.80;;;26.90;40.80;;;;;;5080759;28;20434;-82
2022/05/26 14:45:35;;;;;;;3.37;1.10;;;27.00;40.50;;;;;;5080436;28;20472;-82
2022/05/26 14:48:05;;;;;;;2.70;0.80;;;26.90;40.60;;;;;;5080535;28;20486;-83
2022/05/26 14:50:33;;;;;;;1.80;1.20;;;26.90;40.80;;;;;;5079949;28;20495;-82
2022/05/26 14:53:03;;;;;;;2.17;1.10;;;26.80;40.90;;;;;;5078868;28;20513;-82
2022/05/26 14:55:31;;;;;;;1.03;0.80;;;26.90;40.80;;;;;;5080006;28;20952;-82
2022/05/26 14:58:01;;;;;;;1.07;1.00;;;26.80;40.80;;;;;;5080134;28;20437;-83
2022/05/26 15:00:31;;;;;;;2.73;1.10;;;26.80;40.70;;;;;;5079305;28;20485;-83
2022/05/26 15:02:59;;;;;;;1.73;1.10;;;26.80;40.80;;;;;;5079389;28;20473;-82
2022/05/26 15:05:27;;;;;;;1.03;0.90;;;26.80;40.80;;;;;;5080429;28;20442;-84
2022/05/26 15:07:55;;;;;;;1.43;1.33;;;26.90;40.70;;;;;;5079121;28;20420;-82
2022/05/26 15:10:24;;;;;;;1.20;1.10;;;26.80;40.70;;;;;;5080494;28;20489;-82
2022/05/26 15:12:52;;;;;;;1.97;1.10;;;26.80;40.80;;;;;;5080502;28;20533;-83
2022/05/26 15:15:21;;;;;;;1.90;1.00;;;26.80;40.80;;;;;;5079750;28;20458;-82
2022/05/26 15:17:49;;;;;;;1.20;0.90;;;26.70;40.90;;;;;;5079670;28;20446;-83
2022/05/26 15:20:17;;;;;;;3.03;1.07;;;26.80;40.70;;;;;;5079979;28;20535;-82
2022/05/26 15:22:46;;;;;;;1.60;1.07;;;26.90;40.70;;;;;;5079261;28;20421;-82
2022/05/26 15:25:14;;;;;;;1.10;1.00;;;26.90;40.70;;;;;;5078756;28;20449;-82
2022/05/26 15:27:44;;;;;;;0.80;0.80;;;27.00;40.50;;;;;;5079781;28;20455;-82
2022/05/26 15:30:14;;;;;;;1.67;1.00;;;26.80;40.60;;;;;;5080237;28;20416;-82
2022/05/26 15:32:43;;;;;;;0.93;0.93;;;26.90;40.60;;;;;;5081151;28;20416;-82
2022/05/26 15:35:12;;;;;;;2.60;1.10;;;26.80;40.70;;;;;;5080536;28;20575;-83
2022/05/26 15:37:41;;;;;;;2.07;1.10;;;26.80;41.00;;;;;;5080597;28;20446;-80
2022/05/26 15:40:10;;;;;;;1.20;1.10;;;26.80;40.80;;;;;;5076858;28;20470;-81
2022/05/26 15:42:38;;;;;;;1.10;1.00;;;26.70;41.00;;;;;;5083766;28;20446;-81
2022/05/26 15:45:11;;;;;;;1.10;1.00;;;26.80;41.10;;;;;;5071705;28;20445;-81
2022/05/26 15:47:39;;;;;;;1.20;1.00;;;27.00;40.80;;;;;;5083444;28;20465;-81
2022/05/26 15:50:09;;;;;;;1.83;1.10;;;26.90;40.80;;;;;;5083252;28;20520;-81
2022/05/26 15:52:37;;;;;;;1.23;1.13;;;26.90;40.80;;;;;;5083381;28;20454;-81
2022/05/26 15:55:05;;;;;;;3.00;1.10;;;26.90;41.00;;;;;;5083542;28;20461;-81
2022/05/26 15:57:35;;;;;;;3.50;1.20;;;26.90;41.00;;;;;;5083535;28;20476;-81
2022/05/26 16:00:05;;;;;;;0.93;0.93;;;26.80;41.10;;;;;;5083343;28;20476;-80
2022/05/26 16:02:34;;;;;;;3.03;0.90;;;26.80;41.30;;;;;;5083915;28;20976;-81
2022/05/26 16:05:01;;;;;;;2.00;0.90;;;26.80;41.30;;;;;;5083851;28;20469;-81
2022/05/26 16:07:29;;;;;;;1.03;0.93;;;26.90;41.20;;;;;;5083686;28;20505;-81
2022/05/26 16:09:57;;;;;;;1.00;0.80;;;26.90;41.10;;;;;;5083371;28;20525;-81
2022/05/26 16:12:25;;;;;;;1.27;0.90;;;27.00;41.00;;;;;;5082713;28;20453;-82
2022/05/26 16:14:53;;;;;;;0.90;0.90;;;27.00;41.10;;;;;;5083319;28;20450;-81
2022/05/26 16:17:22;;;;;;;1.17;0.80;;;26.90;41.20;;;;;;5082862;28;20405;-81
2022/05/26 16:19:53;;;;;;;1.50;1.20;;;26.90;41.30;;;;;;5083019;28;20556;-82
2022/05/26 16:22:23;;;;;;;2.70;1.17;;;26.80;41.30;;;;;;5081875;28;20524;-81
2022/05/26 16:24:51;;;;;;;1.00;1.00;;;26.80;41.50;;;;;;5082463;28;20430;-81
2022/05/26 16:27:19;;;;;;;2.07;1.10;;;26.80;41.60;;;;;;5082235;28;20453;-81
2022/05/26 16:29:47;;;;;;;1.93;0.90;;;26.70;41.70;;;;;;5079130;28;20445;-81
2022/05/26 16:32:15;;;;;;;2.47;1.20;;;26.80;41.90;;;;;;5077372;28;20544;-79
2022/05/26 16:34:44;;;;;;;1.77;1.20;;;26.60;41.90;;;;;;5076186;28;20441;-81
2022/05/26 16:37:12;;;;;;;5.50;0.80;;;26.40;42.30;;;;;;5069198;28;20469;-80
2022/05/26 16:39:42;;;;;;;2.00;1.33;;;26.40;42.50;;;;;;5085145;28;20504;-83
2022/05/26 16:42:10;;;;;;;3.07;1.27;;;26.40;42.60;;;;;;5078866;28;20491;-81
2022/05/26 16:44:38;;;;;;;9.30;1.40;;;26.40;42.70;;;;;;5085848;28;20446;-83
2022/05/26 16:47:07;;;;;;;4.50;1.20;;;26.50;42.60;;;;;;5083885;28;20429;-83
2022/05/26 16:49:38;;;;;;;3.03;1.20;;;26.40;42.50;;;;;;5087979;28;20559;-83
2022/05/26 16:52:07;;;;;;;4.00;1.37;;;26.50;42.40;;;;;;5088765;28;20802;-83
2022/05/26 16:54:37;;;;;;;1.40;1.13;;;26.50;42.20;;;;;;5088425;28;20467;-83
2022/05/26 16:57:06;;;;;;;3.93;1.17;;;26.50;42.10;;;;;;5087960;28;20447;-84
2022/05/26 16:59:34;;;;;;;5.00;1.20;;;26.50;42.10;;;;;;5088891;28;20443;-83